Atascosa, Texas
Current Conditions -  °F | °C
As of 4:55 PM on Tuesday 27 Jan 2015 (Local Time) from KCVB Reporting Station
Clear Clear  
Wind Chill: 77°   Ceiling: Unl
Heat Index: 78°   Visibility: 7mi
Dew Point: 42°   Wind: 6mph
Humidity: 28%   Direction: 170°S
Pressure: 30.13"   Gusts: NA
Location:  29.28°N, 98.74°W
Report Text: KCVB 272255Z AUTO 17005KT 7SM CLR 25/05 A3013 RMK AO2 T02510054
Loading
Personal Weather Stations






























Interactive Weather Map New forecast layout! Learn more

10-Day Weather Forecast

Advertisements
Track Severe Weather on mobile